sensor_id;sensor_type;location;lat;lon;timestamp;temperature;humidity
68439;SHT31;55421;51.600;5.718;2024-03-08T00:00:44;4.37;78.72
68439;SHT31;55421;51.600;5.718;2024-03-08T00:03:31;4.34;78.80
68439;SHT31;55421;51.600;5.718;2024-03-08T00:05:58;4.32;78.80
68439;SHT31;55421;51.600;5.718;2024-03-08T00:08:25;4.31;78.80
68439;SHT31;55421;51.600;5.718;2024-03-08T00:10:52;4.30;78.80
68439;SHT31;55421;51.600;5.718;2024-03-08T00:13:18;4.28;78.74
68439;SHT31;55421;51.600;5.718;2024-03-08T00:15:45;4.24;78.75
68439;SHT31;55421;51.600;5.718;2024-03-08T00:18:11;4.20;78.71
68439;SHT31;55421;51.600;5.718;2024-03-08T00:20:38;4.18;78.70
68439;SHT31;55421;51.600;5.718;2024-03-08T00:23:04;4.17;78.74
68439;SHT31;55421;51.600;5.718;2024-03-08T00:25:31;4.16;78.80
68439;SHT31;55421;51.600;5.718;2024-03-08T00:27:57;4.12;78.77
68439;SHT31;55421;51.600;5.718;2024-03-08T00:30:25;4.09;78.74
68439;SHT31;55421;51.600;5.718;2024-03-08T00:32:52;4.07;78.77
68439;SHT31;55421;51.600;5.718;2024-03-08T00:35:18;4.04;78.79
68439;SHT31;55421;51.600;5.718;2024-03-08T00:37:45;4.03;78.81
68439;SHT31;55421;51.600;5.718;2024-03-08T00:40:13;4.03;78.84
68439;SHT31;55421;51.600;5.718;2024-03-08T00:42:40;4.00;78.81
68439;SHT31;55421;51.600;5.718;2024-03-08T00:45:08;3.97;78.80
68439;SHT31;55421;51.600;5.718;2024-03-08T00:47:36;3.93;78.80
68439;SHT31;55421;51.600;5.718;2024-03-08T00:50:03;3.92;78.80
68439;SHT31;55421;51.600;5.718;2024-03-08T00:52:30;3.92;78.80
68439;SHT31;55421;51.600;5.718;2024-03-08T00:54:56;3.89;78.80
68439;SHT31;55421;51.600;5.718;2024-03-08T00:57:23;3.87;78.80
68439;SHT31;55421;51.600;5.718;2024-03-08T00:59:49;3.83;78.78
68439;SHT31;55421;51.600;5.718;2024-03-08T01:02:16;3.81;78.80
68439;SHT31;55421;51.600;5.718;2024-03-08T01:04:45;3.79;78.80
68439;SHT31;55421;51.600;5.718;2024-03-08T01:07:13;3.78;78.81
68439;SHT31;55421;51.600;5.718;2024-03-08T01:09:40;3.77;78.83
68439;SHT31;55421;51.600;5.718;2024-03-08T01:12:07;3.74;78.81
68439;SHT31;55421;51.600;5.718;2024-03-08T01:14:33;3.71;78.80
68439;SHT31;55421;51.600;5.718;2024-03-08T01:17:00;3.68;78.81
68439;SHT31;55421;51.600;5.718;2024-03-08T01:19:26;3.65;78.85
68439;SHT31;55421;51.600;5.718;2024-03-08T01:21:53;3.63;78.81
68439;SHT31;55421;51.600;5.718;2024-03-08T01:24:22;3.61;78.81
68439;SHT31;55421;51.600;5.718;2024-03-08T01:26:49;3.60;78.82
68439;SHT31;55421;51.600;5.718;2024-03-08T01:29:15;3.58;78.87
68439;SHT31;55421;51.600;5.718;2024-03-08T01:31:42;3.55;78.89
68439;SHT31;55421;51.600;5.718;2024-03-08T01:34:08;3.54;78.90
68439;SHT31;55421;51.600;5.718;2024-03-08T01:36:36;3.54;78.90
68439;SHT31;55421;51.600;5.718;2024-03-08T01:39:03;3.54;78.90
68439;SHT31;55421;51.600;5.718;2024-03-08T01:41:34;3.53;78.90
68439;SHT31;55421;51.600;5.718;2024-03-08T01:44:01;3.49;78.90
68439;SHT31;55421;51.600;5.718;2024-03-08T01:46:29;3.47;78.90
68439;SHT31;55421;51.600;5.718;2024-03-08T01:48:57;3.48;78.90
68439;SHT31;55421;51.600;5.718;2024-03-08T01:51:27;3.46;78.90
68439;SHT31;55421;51.600;5.718;2024-03-08T01:53:54;3.44;78.90
68439;SHT31;55421;51.600;5.718;2024-03-08T01:56:24;3.42;78.87
68439;SHT31;55421;51.600;5.718;2024-03-08T01:58:51;3.38;78.81
68439;SHT31;55421;51.600;5.718;2024-03-08T02:01:18;3.37;78.80
68439;SHT31;55421;51.600;5.718;2024-03-08T02:03:45;3.37;78.80
68439;SHT31;55421;51.600;5.718;2024-03-08T02:06:12;3.35;78.80
68439;SHT31;55421;51.600;5.718;2024-03-08T02:08:41;3.32;78.82
68439;SHT31;55421;51.600;5.718;2024-03-08T02:11:12;3.29;78.84
68439;SHT31;55421;51.600;5.718;2024-03-08T02:13:39;3.27;78.82
68439;SHT31;55421;51.600;5.718;2024-03-08T02:16:06;3.27;78.90
68439;SHT31;55421;51.600;5.718;2024-03-08T02:18:34;3.27;78.94
68439;SHT31;55421;51.600;5.718;2024-03-08T02:21:01;3.27;79.00
68439;SHT31;55421;51.600;5.718;2024-03-08T02:23:30;3.25;78.92
68439;SHT31;55421;51.600;5.718;2024-03-08T02:26:01;3.21;78.94
68439;SHT31;55421;51.600;5.718;2024-03-08T02:28:27;3.20;78.92
68439;SHT31;55421;51.600;5.718;2024-03-08T02:30:55;3.19;78.90
68439;SHT31;55421;51.600;5.718;2024-03-08T02:33:22;3.18;78.94
68439;SHT31;55421;51.600;5.718;2024-03-08T02:35:49;3.15;78.94
68439;SHT31;55421;51.600;5.718;2024-03-08T02:38:19;3.12;78.92
68439;SHT31;55421;51.600;5.718;2024-03-08T02:40:49;3.09;78.92
68439;SHT31;55421;51.600;5.718;2024-03-08T02:43:17;3.08;78.99
68439;SHT31;55421;51.600;5.718;2024-03-08T02:45:46;3.07;79.00
68439;SHT31;55421;51.600;5.718;2024-03-08T02:48:13;3.07;79.01
68439;SHT31;55421;51.600;5.718;2024-03-08T02:50:42;3.04;79.05
68439;SHT31;55421;51.600;5.718;2024-03-08T02:53:10;3.03;79.04
68439;SHT31;55421;51.600;5.718;2024-03-08T02:55:39;3.02;79.03
68439;SHT31;55421;51.600;5.718;2024-03-08T02:58:07;3.03;79.09
68439;SHT31;55421;51.600;5.718;2024-03-08T03:00:37;3.02;79.10
68439;SHT31;55421;51.600;5.718;2024-03-08T03:03:07;2.98;79.02
68439;SHT31;55421;51.600;5.718;2024-03-08T03:05:34;2.96;79.00
68439;SHT31;55421;51.600;5.718;2024-03-08T03:08:00;2.95;79.04
68439;SHT31;55421;51.600;5.718;2024-03-08T03:10:27;2.95;79.10
68439;SHT31;55421;51.600;5.718;2024-03-08T03:12:54;2.95;79.10
68439;SHT31;55421;51.600;5.718;2024-03-08T03:15:20;2.91;79.10
68439;SHT31;55421;51.600;5.718;2024-03-08T03:17:47;2.88;79.11
68439;SHT31;55421;51.600;5.718;2024-03-08T03:20:18;2.85;79.11
68439;SHT31;55421;51.600;5.718;2024-03-08T03:22:58;2.85;79.20
68439;SHT31;55421;51.600;5.718;2024-03-08T03:25:27;2.84;79.20
68439;SHT31;55421;51.600;5.718;2024-03-08T03:28:01;2.83;79.20
68439;SHT31;55421;51.600;5.718;2024-03-08T03:30:28;2.80;79.20
68439;SHT31;55421;51.600;5.718;2024-03-08T03:32:59;2.77;79.20
68439;SHT31;55421;51.600;5.718;2024-03-08T03:35:27;2.76;79.20
68439;SHT31;55421;51.600;5.718;2024-03-08T03:37:55;2.75;79.26
68439;SHT31;55421;51.600;5.718;2024-03-08T03:40:36;2.74;79.25
68439;SHT31;55421;51.600;5.718;2024-03-08T03:43:03;2.69;79.21
68439;SHT31;55421;51.600;5.718;2024-03-08T03:45:30;2.66;79.20
68439;SHT31;55421;51.600;5.718;2024-03-08T03:48:04;2.65;79.24
68439;SHT31;55421;51.600;5.718;2024-03-08T03:50:32;2.64;79.27
68439;SHT31;55421;51.600;5.718;2024-03-08T03:53:00;2.62;79.29
68439;SHT31;55421;51.600;5.718;2024-03-08T03:55:28;2.59;79.27
68439;SHT31;55421;51.600;5.718;2024-03-08T03:57:55;2.57;79.30
68439;SHT31;55421;51.600;5.718;2024-03-08T04:00:21;2.58;79.29
68439;SHT31;55421;51.600;5.718;2024-03-08T04:02:48;2.59;79.30
68439;SHT31;55421;51.600;5.718;2024-03-08T04:05:15;2.57;79.30
68439;SHT31;55421;51.600;5.718;2024-03-08T04:07:41;2.56;79.24
68439;SHT31;55421;51.600;5.718;2024-03-08T04:10:08;2.55;79.21
68439;SHT31;55421;51.600;5.718;2024-03-08T04:12:35;2.54;79.20
68439;SHT31;55421;51.600;5.718;2024-03-08T04:15:02;2.56;79.25
68439;SHT31;55421;51.600;5.718;2024-03-08T04:17:29;2.55;79.21
68439;SHT31;55421;51.600;5.718;2024-03-08T04:19:55;2.53;79.20
68439;SHT31;55421;51.600;5.718;2024-03-08T04:22:23;2.51;79.20
68439;SHT31;55421;51.600;5.718;2024-03-08T04:24:49;2.49;79.17
68439;SHT31;55421;51.600;5.718;2024-03-08T04:27:17;2.50;79.20
68439;SHT31;55421;51.600;5.718;2024-03-08T04:29:43;2.50;79.16
68439;SHT31;55421;51.600;5.718;2024-03-08T04:32:10;2.48;79.10
68439;SHT31;55421;51.600;5.718;2024-03-08T04:34:39;2.43;79.10
68439;SHT31;55421;51.600;5.718;2024-03-08T04:37:06;2.41;79.10
68439;SHT31;55421;51.600;5.718;2024-03-08T04:39:32;2.40;79.10
68439;SHT31;55421;51.600;5.718;2024-03-08T04:42:01;2.41;79.16
68439;SHT31;55421;51.600;5.718;2024-03-08T04:44:30;2.40;79.18
68439;SHT31;55421;51.600;5.718;2024-03-08T04:46:58;2.37;79.15
68439;SHT31;55421;51.600;5.718;2024-03-08T04:49:24;2.36;79.20
68439;SHT31;55421;51.600;5.718;2024-03-08T04:51:51;2.37;79.17
68439;SHT31;55421;51.600;5.718;2024-03-08T04:54:17;2.38;79.10
68439;SHT31;55421;51.600;5.718;2024-03-08T04:56:44;2.36;79.10
68439;SHT31;55421;51.600;5.718;2024-03-08T04:59:12;2.33;79.10
68439;SHT31;55421;51.600;5.718;2024-03-08T05:01:39;2.29;79.10
68439;SHT31;55421;51.600;5.718;2024-03-08T05:04:06;2.28;79.12
68439;SHT31;55421;51.600;5.718;2024-03-08T05:06:32;2.27;79.18
68439;SHT31;55421;51.600;5.718;2024-03-08T05:08:59;2.27;79.20
68439;SHT31;55421;51.600;5.718;2024-03-08T05:11:26;2.24;79.21
68439;SHT31;55421;51.600;5.718;2024-03-08T05:13:53;2.21;79.21
68439;SHT31;55421;51.600;5.718;2024-03-08T05:16:20;2.21;79.20
68439;SHT31;55421;51.600;5.718;2024-03-08T05:18:48;2.21;79.28
68439;SHT31;55421;51.600;5.718;2024-03-08T05:21:15;2.22;79.30
68439;SHT31;55421;51.600;5.718;2024-03-08T05:23:43;2.19;79.30
68439;SHT31;55421;51.600;5.718;2024-03-08T05:26:10;2.17;79.31
68439;SHT31;55421;51.600;5.718;2024-03-08T05:28:36;2.17;79.33
68439;SHT31;55421;51.600;5.718;2024-03-08T05:31:03;2.17;79.39
68439;SHT31;55421;51.600;5.718;2024-03-08T05:33:29;2.16;79.40
68439;SHT31;55421;51.600;5.718;2024-03-08T05:35:56;2.14;79.40
68439;SHT31;55421;51.600;5.718;2024-03-08T05:38:22;2.11;79.33
68439;SHT31;55421;51.600;5.718;2024-03-08T05:40:49;2.09;79.33
68439;SHT31;55421;51.600;5.718;2024-03-08T05:43:17;2.09;79.40
68439;SHT31;55421;51.600;5.718;2024-03-08T05:45:45;2.08;79.40
68439;SHT31;55421;51.600;5.718;2024-03-08T05:48:13;2.07;79.42
68439;SHT31;55421;51.600;5.718;2024-03-08T05:50:40;2.04;79.45
68439;SHT31;55421;51.600;5.718;2024-03-08T05:53:06;2.02;79.50
68439;SHT31;55421;51.600;5.718;2024-03-08T05:55:33;2.00;79.49
68439;SHT31;55421;51.600;5.718;2024-03-08T05:58:02;2.01;79.50
68439;SHT31;55421;51.600;5.718;2024-03-08T06:00:29;2.01;79.59
68439;SHT31;55421;51.600;5.718;2024-03-08T06:02:57;1.99;79.60
68439;SHT31;55421;51.600;5.718;2024-03-08T06:05:25;1.97;79.59
68439;SHT31;55421;51.600;5.718;2024-03-08T06:07:51;1.98;79.60
68439;SHT31;55421;51.600;5.718;2024-03-08T06:10:19;1.98;79.60
68439;SHT31;55421;51.600;5.718;2024-03-08T06:12:46;1.99;79.62
68439;SHT31;55421;51.600;5.718;2024-03-08T06:15:12;1.98;79.67
68439;SHT31;55421;51.600;5.718;2024-03-08T06:17:41;1.97;79.66
68439;SHT31;55421;51.600;5.718;2024-03-08T06:20:08;1.96;79.68
68439;SHT31;55421;51.600;5.718;2024-03-08T06:22:39;1.99;79.70
68439;SHT31;55421;51.600;5.718;2024-03-08T06:25:10;2.00;79.76
68439;SHT31;55421;51.600;5.718;2024-03-08T06:27:41;2.00;79.79
68439;SHT31;55421;51.600;5.718;2024-03-08T06:30:14;2.00;79.77
68439;SHT31;55421;51.600;5.718;2024-03-08T06:32:42;2.01;79.70
68439;SHT31;55421;51.600;5.718;2024-03-08T06:35:09;2.04;79.73
68439;SHT31;55421;51.600;5.718;2024-03-08T06:37:36;2.04;79.75
68439;SHT31;55421;51.600;5.718;2024-03-08T06:40:03;2.05;79.76
68439;SHT31;55421;51.600;5.718;2024-03-08T06:42:30;2.06;79.73
68439;SHT31;55421;51.600;5.718;2024-03-08T06:45:01;2.09;79.71
68439;SHT31;55421;51.600;5.718;2024-03-08T06:47:31;2.12;79.80
68439;SHT31;55421;51.600;5.718;2024-03-08T06:50:02;2.14;79.70
68439;SHT31;55421;51.600;5.718;2024-03-08T06:52:30;2.16;79.65
68439;SHT31;55421;51.600;5.718;2024-03-08T06:54:56;2.18;79.61
68439;SHT31;55421;51.600;5.718;2024-03-08T06:57:23;2.22;79.60
68439;SHT31;55421;51.600;5.718;2024-03-08T06:59:49;2.26;79.60
68439;SHT31;55421;51.600;5.718;2024-03-08T07:02:18;2.29;79.55
68439;SHT31;55421;51.600;5.718;2024-03-08T07:04:45;2.32;79.50
68439;SHT31;55421;51.600;5.718;2024-03-08T07:07:11;2.35;79.50
68439;SHT31;55421;51.600;5.718;2024-03-08T07:09:38;2.41;79.44
68439;SHT31;55421;51.600;5.718;2024-03-08T07:12:05;2.45;79.37
68439;SHT31;55421;51.600;5.718;2024-03-08T07:14:32;2.50;79.30
68439;SHT31;55421;51.600;5.718;2024-03-08T07:16:59;2.52;79.23
68439;SHT31;55421;51.600;5.718;2024-03-08T07:19:25;2.56;79.18
68439;SHT31;55421;51.600;5.718;2024-03-08T07:21:52;2.61;79.02
68439;SHT31;55421;51.600;5.718;2024-03-08T07:24:18;2.67;79.07
68439;SHT31;55421;51.600;5.718;2024-03-08T07:27:04;2.73;78.85
68439;SHT31;55421;51.600;5.718;2024-03-08T07:29:32;2.75;78.75
68439;SHT31;55421;51.600;5.718;2024-03-08T07:32:00;2.78;78.71
68439;SHT31;55421;51.600;5.718;2024-03-08T07:34:27;2.84;78.70
68439;SHT31;55421;51.600;5.718;2024-03-08T07:36:58;2.92;78.80
68439;SHT31;55421;51.600;5.718;2024-03-08T07:39:25;2.96;78.66
68439;SHT31;55421;51.600;5.718;2024-03-08T07:41:52;3.00;78.47
68439;SHT31;55421;51.600;5.718;2024-03-08T07:44:21;3.01;78.26
68439;SHT31;55421;51.600;5.718;2024-03-08T07:46:47;3.06;78.27
68439;SHT31;55421;51.600;5.718;2024-03-08T07:49:14;3.14;78.32
68439;SHT31;55421;51.600;5.718;2024-03-08T07:51:41;3.20;78.36
68439;SHT31;55421;51.600;5.718;2024-03-08T07:54:07;3.24;78.24
68439;SHT31;55421;51.600;5.718;2024-03-08T07:56:35;3.27;78.10
68439;SHT31;55421;51.600;5.718;2024-03-08T07:59:02;3.32;78.09
68439;SHT31;55421;51.600;5.718;2024-03-08T08:01:32;3.40;78.21
68439;SHT31;55421;51.600;5.718;2024-03-08T08:04:00;3.48;78.17
68439;SHT31;55421;51.600;5.718;2024-03-08T08:06:29;3.56;78.03
68439;SHT31;55421;51.600;5.718;2024-03-08T08:08:59;3.62;77.97
68439;SHT31;55421;51.600;5.718;2024-03-08T08:11:27;3.68;77.97
68439;SHT31;55421;51.600;5.718;2024-03-08T08:13:54;3.78;77.92
68439;SHT31;55421;51.600;5.718;2024-03-08T08:16:24;3.85;77.66
68439;SHT31;55421;51.600;5.718;2024-03-08T08:18:51;3.90;77.16
68439;SHT31;55421;51.600;5.718;2024-03-08T08:21:19;3.94;77.02
68439;SHT31;55421;51.600;5.718;2024-03-08T08:23:45;3.98;77.25
68439;SHT31;55421;51.600;5.718;2024-03-08T08:26:12;4.06;77.23
68439;SHT31;55421;51.600;5.718;2024-03-08T08:28:39;4.15;77.11
68439;SHT31;55421;51.600;5.718;2024-03-08T08:31:06;4.23;76.93
68439;SHT31;55421;51.600;5.718;2024-03-08T08:33:34;4.30;76.76
68439;SHT31;55421;51.600;5.718;2024-03-08T08:36:01;4.38;76.74
68439;SHT31;55421;51.600;5.718;2024-03-08T08:38:29;4.45;76.52
68439;SHT31;55421;51.600;5.718;2024-03-08T08:40:56;4.51;76.22
68439;SHT31;55421;51.600;5.718;2024-03-08T08:43:22;4.58;75.67
68439;SHT31;55421;51.600;5.718;2024-03-08T08:45:51;4.65;75.53
68439;SHT31;55421;51.600;5.718;2024-03-08T08:48:20;4.71;75.28
68439;SHT31;55421;51.600;5.718;2024-03-08T08:50:47;4.76;75.10
68439;SHT31;55421;51.600;5.718;2024-03-08T08:53:14;4.81;75.04
68439;SHT31;55421;51.600;5.718;2024-03-08T08:55:40;4.88;74.86
68439;SHT31;55421;51.600;5.718;2024-03-08T08:58:07;4.98;74.71
68439;SHT31;55421;51.600;5.718;2024-03-08T09:00:34;5.09;74.78
68439;SHT31;55421;51.600;5.718;2024-03-08T09:03:00;5.19;74.64
68439;SHT31;55421;51.600;5.718;2024-03-08T09:05:28;5.29;74.44
68439;SHT31;55421;51.600;5.718;2024-03-08T09:07:55;5.36;74.17
68439;SHT31;55421;51.600;5.718;2024-03-08T09:10:21;5.41;74.01
68439;SHT31;55421;51.600;5.718;2024-03-08T09:12:48;5.47;73.84
68439;SHT31;55421;51.600;5.718;2024-03-08T09:15:14;5.58;73.78
68439;SHT31;55421;51.600;5.718;2024-03-08T09:17:43;5.70;73.86
68439;SHT31;55421;51.600;5.718;2024-03-08T09:20:10;5.81;73.66
68439;SHT31;55421;51.600;5.718;2024-03-08T09:22:44;5.88;72.88
68439;SHT31;55421;51.600;5.718;2024-03-08T09:25:11;5.92;72.54
68439;SHT31;55421;51.600;5.718;2024-03-08T09:27:38;5.96;72.57
68439;SHT31;55421;51.600;5.718;2024-03-08T09:30:08;6.00;72.40
68439;SHT31;55421;51.600;5.718;2024-03-08T09:32:35;6.04;71.92
68439;SHT31;55421;51.600;5.718;2024-03-08T09:35:03;6.07;71.83
68439;SHT31;55421;51.600;5.718;2024-03-08T09:37:33;6.15;71.54
68439;SHT31;55421;51.600;5.718;2024-03-08T09:40:00;6.25;71.73
68439;SHT31;55421;51.600;5.718;2024-03-08T09:42:30;6.34;71.78
68439;SHT31;55421;51.600;5.718;2024-03-08T09:44:58;6.42;71.36
68439;SHT31;55421;51.600;5.718;2024-03-08T09:47:25;6.48;71.12
68439;SHT31;55421;51.600;5.718;2024-03-08T09:49:59;6.52;70.77
68439;SHT31;55421;51.600;5.718;2024-03-08T09:52:27;6.55;70.39
68439;SHT31;55421;51.600;5.718;2024-03-08T09:54:56;6.56;69.98
68439;SHT31;55421;51.600;5.718;2024-03-08T09:57:24;6.57;70.00
68439;SHT31;55421;51.600;5.718;2024-03-08T09:59:52;6.59;69.53
68439;SHT31;55421;51.600;5.718;2024-03-08T10:02:19;6.62;69.90
68439;SHT31;55421;51.600;5.718;2024-03-08T10:04:47;6.72;70.38
68439;SHT31;55421;51.600;5.718;2024-03-08T10:07:13;6.86;70.25
68439;SHT31;55421;51.600;5.718;2024-03-08T10:09:40;6.95;69.99
68439;SHT31;55421;51.600;5.718;2024-03-08T10:12:13;7.04;69.68
68439;SHT31;55421;51.600;5.718;2024-03-08T10:14:45;7.11;69.24
68439;SHT31;55421;51.600;5.718;2024-03-08T10:17:12;7.15;69.05
68439;SHT31;55421;51.600;5.718;2024-03-08T10:19:39;7.22;68.96
68439;SHT31;55421;51.600;5.718;2024-03-08T10:22:17;7.28;68.96
68439;SHT31;55421;51.600;5.718;2024-03-08T10:24:46;7.34;68.42
68439;SHT31;55421;51.600;5.718;2024-03-08T10:27:13;7.37;67.98
68439;SHT31;55421;51.600;5.718;2024-03-08T10:29:39;7.43;68.11
68439;SHT31;55421;51.600;5.718;2024-03-08T10:32:10;7.48;68.06
68439;SHT31;55421;51.600;5.718;2024-03-08T10:34:36;7.54;68.18
68439;SHT31;55421;51.600;5.718;2024-03-08T10:37:03;7.60;67.91
68439;SHT31;55421;51.600;5.718;2024-03-08T10:39:34;7.67;67.59
68439;SHT31;55421;51.600;5.718;2024-03-08T10:42:03;7.75;67.48
68439;SHT31;55421;51.600;5.718;2024-03-08T10:44:40;7.83;67.19
68439;SHT31;55421;51.600;5.718;2024-03-08T10:47:30;7.92;66.49
68439;SHT31;55421;51.600;5.718;2024-03-08T10:50:06;8.01;66.89
68439;SHT31;55421;51.600;5.718;2024-03-08T10:52:51;8.11;67.27
68439;SHT31;55421;51.600;5.718;2024-03-08T10:55:18;8.21;67.26
68439;SHT31;55421;51.600;5.718;2024-03-08T10:57:46;8.27;66.55
68439;SHT31;55421;51.600;5.718;2024-03-08T11:00:14;8.33;66.15
68439;SHT31;55421;51.600;5.718;2024-03-08T11:02:45;8.41;66.19
68439;SHT31;55421;51.600;5.718;2024-03-08T11:05:15;8.47;65.17
68439;SHT31;55421;51.600;5.718;2024-03-08T11:08:19;8.51;64.17
68439;SHT31;55421;51.600;5.718;2024-03-08T11:10:50;8.57;64.13
68439;SHT31;55421;51.600;5.718;2024-03-08T11:13:33;8.63;64.53
68439;SHT31;55421;51.600;5.718;2024-03-08T11:16:07;8.69;64.38
68439;SHT31;55421;51.600;5.718;2024-03-08T11:18:36;8.74;64.17
68439;SHT31;55421;51.600;5.718;2024-03-08T11:21:04;8.81;64.55
68439;SHT31;55421;51.600;5.718;2024-03-08T11:23:38;8.88;64.59
68439;SHT31;55421;51.600;5.718;2024-03-08T11:26:20;8.94;64.01
68439;SHT31;55421;51.600;5.718;2024-03-08T11:28:51;8.99;63.87
68439;SHT31;55421;51.600;5.718;2024-03-08T11:31:22;9.03;63.74
68439;SHT31;55421;51.600;5.718;2024-03-08T11:33:52;9.10;64.51
68439;SHT31;55421;51.600;5.718;2024-03-08T11:36:21;9.13;63.64
68439;SHT31;55421;51.600;5.718;2024-03-08T11:38:51;9.15;63.51
68439;SHT31;55421;51.600;5.718;2024-03-08T11:41:19;9.18;63.97
68439;SHT31;55421;51.600;5.718;2024-03-08T11:44:01;9.23;64.08
68439;SHT31;55421;51.600;5.718;2024-03-08T11:46:32;9.32;63.67
68439;SHT31;55421;51.600;5.718;2024-03-08T11:49:00;9.33;62.63
68439;SHT31;55421;51.600;5.718;2024-03-08T11:51:26;9.36;63.03
68439;SHT31;55421;51.600;5.718;2024-03-08T11:53:53;9.41;63.12
68439;SHT31;55421;51.600;5.718;2024-03-08T11:56:20;9.43;62.50
68439;SHT31;55421;51.600;5.718;2024-03-08T11:58:53;9.44;62.64
68439;SHT31;55421;51.600;5.718;2024-03-08T12:01:23;9.47;62.79
68439;SHT31;55421;51.600;5.718;2024-03-08T12:03:54;9.53;62.56
68439;SHT31;55421;51.600;5.718;2024-03-08T12:06:25;9.57;62.65
68439;SHT31;55421;51.600;5.718;2024-03-08T12:09:02;9.60;62.36
68439;SHT31;55421;51.600;5.718;2024-03-08T12:11:29;9.60;62.14
68439;SHT31;55421;51.600;5.718;2024-03-08T12:13:57;9.61;62.58
68439;SHT31;55421;51.600;5.718;2024-03-08T12:16:24;9.65;62.17
68439;SHT31;55421;51.600;5.718;2024-03-08T12:18:51;9.62;61.67
68439;SHT31;55421;51.600;5.718;2024-03-08T12:21:20;9.65;62.17
68439;SHT31;55421;51.600;5.718;2024-03-08T12:23:51;9.68;62.40
68439;SHT31;55421;51.600;5.718;2024-03-08T12:26:29;9.70;61.63
68439;SHT31;55421;51.600;5.718;2024-03-08T12:29:14;9.72;61.52
68439;SHT31;55421;51.600;5.718;2024-03-08T12:31:51;9.72;61.20
68439;SHT31;55421;51.600;5.718;2024-03-08T12:34:19;9.73;61.49
68439;SHT31;55421;51.600;5.718;2024-03-08T12:36:50;9.76;61.84
68439;SHT31;55421;51.600;5.718;2024-03-08T12:39:22;9.80;61.70
68439;SHT31;55421;51.600;5.718;2024-03-08T12:41:55;9.80;61.63
68439;SHT31;55421;51.600;5.718;2024-03-08T12:44:23;9.82;61.18
68439;SHT31;55421;51.600;5.718;2024-03-08T12:46:50;9.84;61.45
68439;SHT31;55421;51.600;5.718;2024-03-08T12:49:17;9.87;61.24
68439;SHT31;55421;51.600;5.718;2024-03-08T12:51:44;9.89;61.23
68439;SHT31;55421;51.600;5.718;2024-03-08T12:54:11;9.93;61.27
68439;SHT31;55421;51.600;5.718;2024-03-08T12:56:38;9.95;61.07
68439;SHT31;55421;51.600;5.718;2024-03-08T12:59:06;9.97;60.74
68439;SHT31;55421;51.600;5.718;2024-03-08T13:01:34;10.01;60.67
68439;SHT31;55421;51.600;5.718;2024-03-08T13:04:03;10.01;60.31
68439;SHT31;55421;51.600;5.718;2024-03-08T13:06:32;10.01;60.37
68439;SHT31;55421;51.600;5.718;2024-03-08T13:08:59;10.04;60.62
68439;SHT31;55421;51.600;5.718;2024-03-08T13:11:32;10.09;61.12
68439;SHT31;55421;51.600;5.718;2024-03-08T13:14:03;10.16;61.35
68439;SHT31;55421;51.600;5.718;2024-03-08T13:16:33;10.19;60.63
68439;SHT31;55421;51.600;5.718;2024-03-08T13:19:01;10.23;60.90
68439;SHT31;55421;51.600;5.718;2024-03-08T13:21:28;10.27;60.75
68439;SHT31;55421;51.600;5.718;2024-03-08T13:24:04;10.28;59.71
68439;SHT31;55421;51.600;5.718;2024-03-08T13:26:31;10.28;59.70
68439;SHT31;55421;51.600;5.718;2024-03-08T13:29:00;10.30;59.56
68439;SHT31;55421;51.600;5.718;2024-03-08T13:31:26;10.31;59.32
68439;SHT31;55421;51.600;5.718;2024-03-08T13:33:53;10.33;59.76
68439;SHT31;55421;51.600;5.718;2024-03-08T13:36:29;10.36;59.83
68439;SHT31;55421;51.600;5.718;2024-03-08T13:39:10;10.39;59.70
68439;SHT31;55421;51.600;5.718;2024-03-08T13:41:43;10.41;59.86
68439;SHT31;55421;51.600;5.718;2024-03-08T13:44:11;10.43;59.95
68439;SHT31;55421;51.600;5.718;2024-03-08T13:46:37;10.44;59.36
68439;SHT31;55421;51.600;5.718;2024-03-08T13:49:04;10.44;59.64
68439;SHT31;55421;51.600;5.718;2024-03-08T13:51:34;10.46;60.27
68439;SHT31;55421;51.600;5.718;2024-03-08T13:54:00;10.46;60.24
68439;SHT31;55421;51.600;5.718;2024-03-08T13:56:27;10.49;60.37
68439;SHT31;55421;51.600;5.718;2024-03-08T13:58:57;10.52;60.54
68439;SHT31;55421;51.600;5.718;2024-03-08T14:01:23;10.54;60.02
68439;SHT31;55421;51.600;5.718;2024-03-08T14:03:51;10.54;59.87
68439;SHT31;55421;51.600;5.718;2024-03-08T14:06:17;10.53;59.57
68439;SHT31;55421;51.600;5.718;2024-03-08T14:08:44;10.54;59.86
68439;SHT31;55421;51.600;5.718;2024-03-08T14:11:11;10.54;59.48
68439;SHT31;55421;51.600;5.718;2024-03-08T14:13:42;10.53;59.80
68439;SHT31;55421;51.600;5.718;2024-03-08T14:16:13;10.54;59.79
68439;SHT31;55421;51.600;5.718;2024-03-08T14:18:39;10.54;59.30
68439;SHT31;55421;51.600;5.718;2024-03-08T14:21:06;10.54;59.15
68439;SHT31;55421;51.600;5.718;2024-03-08T14:23:36;10.55;59.12
68439;SHT31;55421;51.600;5.718;2024-03-08T14:26:03;10.56;59.21
68439;SHT31;55421;51.600;5.718;2024-03-08T14:28:33;10.58;58.95
68439;SHT31;55421;51.600;5.718;2024-03-08T14:30:59;10.60;58.89
68439;SHT31;55421;51.600;5.718;2024-03-08T14:33:29;10.60;58.33
68439;SHT31;55421;51.600;5.718;2024-03-08T14:35:55;10.61;58.62
68439;SHT31;55421;51.600;5.718;2024-03-08T14:38:22;10.60;58.51
68439;SHT31;55421;51.600;5.718;2024-03-08T14:40:48;10.62;59.22
68439;SHT31;55421;51.600;5.718;2024-03-08T14:43:14;10.65;59.36
68439;SHT31;55421;51.600;5.718;2024-03-08T14:45:42;10.65;59.10
68439;SHT31;55421;51.600;5.718;2024-03-08T14:48:09;10.65;58.84
68439;SHT31;55421;51.600;5.718;2024-03-08T14:50:38;10.65;59.02
68439;SHT31;55421;51.600;5.718;2024-03-08T14:53:04;10.67;58.87
68439;SHT31;55421;51.600;5.718;2024-03-08T14:55:32;10.67;58.47
68439;SHT31;55421;51.600;5.718;2024-03-08T14:58:01;10.66;58.25
68439;SHT31;55421;51.600;5.718;2024-03-08T15:00:27;10.66;58.43
68439;SHT31;55421;51.600;5.718;2024-03-08T15:02:59;10.68;58.79
68439;SHT31;55421;51.600;5.718;2024-03-08T15:05:33;10.68;59.18
68439;SHT31;55421;51.600;5.718;2024-03-08T15:08:04;10.69;59.06
68439;SHT31;55421;51.600;5.718;2024-03-08T15:10:36;10.69;58.76
68439;SHT31;55421;51.600;5.718;2024-03-08T15:13:03;10.70;58.40
68439;SHT31;55421;51.600;5.718;2024-03-08T15:15:40;10.70;58.72
68439;SHT31;55421;51.600;5.718;2024-03-08T15:18:09;10.71;58.61
68439;SHT31;55421;51.600;5.718;2024-03-08T15:20:37;10.72;58.40
68439;SHT31;55421;51.600;5.718;2024-03-08T15:23:03;10.73;58.60
68439;SHT31;55421;51.600;5.718;2024-03-08T15:25:30;10.73;59.00
68439;SHT31;55421;51.600;5.718;2024-03-08T15:27:57;10.73;59.38
68439;SHT31;55421;51.600;5.718;2024-03-08T15:30:24;10.74;59.64
68439;SHT31;55421;51.600;5.718;2024-03-08T15:32:57;10.76;59.32
68439;SHT31;55421;51.600;5.718;2024-03-08T15:35:25;10.76;58.57
68439;SHT31;55421;51.600;5.718;2024-03-08T15:37:52;10.76;58.80
68439;SHT31;55421;51.600;5.718;2024-03-08T15:40:23;10.73;59.67
68439;SHT31;55421;51.600;5.718;2024-03-08T15:42:57;10.69;59.57
68439;SHT31;55421;51.600;5.718;2024-03-08T15:45:24;10.65;59.57
68439;SHT31;55421;51.600;5.718;2024-03-08T15:47:55;10.61;59.94
68439;SHT31;55421;51.600;5.718;2024-03-08T15:50:22;10.58;60.36